Time;durP1;ratioP1;P1;durP2;ratioP2;P2;SDS_P1;SDS_P2;PMS_P1;PMS_P2;Temp;Humidity;BMP_temperature;BMP_pressure;BME280_temperature;BME280_humidity;BME280_pressure;Samples;Min_cycle;Max_cycle;Signal;HPM_P1;HPM_P2
2021/04/13 00:01:11;;;;;;;2.70;1.17;;;5.20;68.30;;;;;;5074614;28;20052;-72
2021/04/13 00:03:52;;;;;;;4.95;1.10;;;5.20;68.70;;;;;;5092274;28;20123;-72
2021/04/13 00:06:25;;;;;;;5.85;1.75;;;5.20;68.70;;;;;;5091773;28;20157;-73
2021/04/13 00:08:53;;;;;;;2.80;1.25;;;5.20;68.70;;;;;;5092249;28;20069;-72
2021/04/13 00:11:19;;;;;;;5.97;1.60;;;5.10;68.60;;;;;;5091482;28;20147;-71
2021/04/13 00:13:45;;;;;;;4.30;1.80;;;5.10;68.60;;;;;;5092199;28;20059;-72
2021/04/13 00:16:20;;;;;;;2.72;1.27;;;5.10;68.90;;;;;;5091752;28;20074;-73
2021/04/13 00:18:49;;;;;;;4.03;1.40;;;5.10;69.00;;;;;;5092247;28;20051;-72
2021/04/13 00:21:25;;;;;;;6.38;2.08;;;5.00;69.00;;;;;;5091105;28;20044;-72
2021/04/13 00:23:52;;;;;;;7.93;1.38;;;5.10;69.30;;;;;;5092264;28;20126;-72
2021/04/13 00:26:23;;;;;;;2.90;1.58;;;5.00;69.20;;;;;;5091690;28;20044;-72
2021/04/13 00:28:50;;;;;;;4.25;1.50;;;5.00;69.40;;;;;;5092361;28;20044;-72
2021/04/13 00:31:40;;;;;;;5.40;2.22;;;5.00;69.40;;;;;;5091476;28;20125;-72
2021/04/13 00:34:30;;;;;;;4.68;1.30;;;5.00;69.50;;;;;;5075915;28;20060;-72
2021/04/13 00:37:12;;;;;;;6.40;1.52;;;4.90;69.60;;;;;;5093953;28;20114;-72
2021/04/13 00:39:38;;;;;;;4.68;1.15;;;4.90;69.80;;;;;;5096105;28;20399;-71
2021/04/13 00:42:08;;;;;;;4.07;1.40;;;4.90;69.70;;;;;;5077474;28;20123;-71
2021/04/13 00:44:39;;;;;;;3.95;1.27;;;4.80;69.70;;;;;;5110344;27;20048;-71
2021/04/13 00:47:17;;;;;;;5.88;1.45;;;4.80;69.60;;;;;;5093938;28;20040;-72
2021/04/13 00:49:48;;;;;;;5.38;1.13;;;4.80;69.80;;;;;;5093688;28;20047;-71
2021/04/13 00:52:17;;;;;;;5.10;1.38;;;4.80;69.70;;;;;;5092807;28;20055;-72
2021/04/13 00:54:55;;;;;;;2.88;1.08;;;4.80;69.70;;;;;;5110866;28;20044;-72
2021/04/13 00:57:26;;;;;;;4.05;1.17;;;4.80;69.80;;;;;;5110132;27;20170;-73
2021/04/13 00:59:51;;;;;;;3.60;1.15;;;4.80;69.70;;;;;;5111322;27;20047;-72
2021/04/13 01:02:24;;;;;;;3.60;1.02;;;4.70;69.80;;;;;;5109719;28;20048;-72
2021/04/13 01:05:05;;;;;;;3.03;1.10;;;4.80;69.80;;;;;;5093808;28;20525;-72
2021/04/13 01:07:38;;;;;;;4.73;1.40;;;4.80;70.10;;;;;;5093582;28;20245;-72
2021/04/13 01:10:11;;;;;;;;;;;4.80;70.00;;;;;;5093544;28;20098;-72
2021/04/13 01:12:40;;;;;;;2.95;1.42;;;4.70;71.00;;;;;;5094354;28;19962;-72
2021/04/13 01:15:08;;;;;;;5.07;1.38;;;4.70;70.00;;;;;;5092765;28;20454;-72
2021/04/13 01:17:36;;;;;;;3.75;1.38;;;4.70;70.00;;;;;;5092459;28;20047;-70
2021/04/13 01:20:22;;;;;;;6.18;1.13;;;4.70;70.00;;;;;;5093197;28;20071;-71
2021/04/13 01:22:59;;;;;;;4.82;1.48;;;4.70;70.20;;;;;;5092949;28;20135;-71
2021/04/13 01:25:26;;;;;;;5.68;1.13;;;4.70;69.90;;;;;;5092125;28;20503;-72
2021/04/13 01:27:56;;;;;;;7.03;1.30;;;4.70;70.70;;;;;;5093459;28;20036;-72
2021/04/13 01:30:29;;;;;;;3.38;1.20;;;4.70;70.10;;;;;;5091911;28;20403;-73
2021/04/13 01:33:22;;;;;;;5.15;1.10;;;4.70;70.20;;;;;;5076281;28;20040;-72
2021/04/13 01:35:59;;;;;;;3.83;1.38;;;4.60;70.40;;;;;;5093037;28;20047;-72
2021/04/13 01:38:32;;;;;;;4.32;1.00;;;4.70;70.20;;;;;;5092053;28;20048;-71
2021/04/13 01:43:39;;;;;;;3.50;1.05;;;4.70;70.30;;;;;;5092059;28;20028;-72
2021/04/13 01:46:05;;;;;;;4.15;1.00;;;4.70;70.60;;;;;;5092775;28;20036;-72
2021/04/13 01:48:31;;;;;;;4.55;1.23;;;4.70;70.40;;;;;;5090519;28;20121;-72
2021/04/13 01:50:58;;;;;;;4.13;1.30;;;4.70;70.50;;;;;;5092420;28;20047;-72
2021/04/13 01:53:25;;;;;;;8.32;1.23;;;4.70;70.70;;;;;;5091296;28;20119;-72
2021/04/13 01:55:53;;;;;;;4.65;1.15;;;4.70;70.60;;;;;;5092399;28;20048;-72
2021/04/13 01:58:45;;;;;;;3.78;1.20;;;4.70;70.80;;;;;;5074501;28;20048;-73
2021/04/13 02:01:28;;;;;;;2.63;1.02;;;4.70;71.10;;;;;;5092153;28;20089;-72
2021/04/13 02:04:03;;;;;;;;;;;4.60;70.90;;;;;;5092989;28;20097;-72
2021/04/13 02:06:59;;;;;;;3.03;1.30;;;4.60;71.50;;;;;;5092617;28;19920;-73
2021/04/13 02:09:30;;;;;;;4.55;1.38;;;4.60;70.90;;;;;;5077320;28;20032;-72
2021/04/13 02:11:58;;;;;;;3.75;1.35;;;4.60;70.60;;;;;;5092370;28;20050;-72
2021/04/13 02:14:24;;;;;;;7.00;1.17;;;4.60;70.60;;;;;;5091098;28;20088;-72
2021/04/13 02:16:52;;;;;;;6.05;1.30;;;4.60;70.60;;;;;;5091099;28;20124;-72
2021/04/13 02:19:19;;;;;;;3.28;0.98;;;4.60;70.90;;;;;;5090942;28;20392;-73
2021/04/13 02:21:49;;;;;;;6.07;1.17;;;4.70;71.00;;;;;;5057437;28;20044;-72
2021/04/13 02:24:23;;;;;;;3.15;1.10;;;4.70;71.00;;;;;;5090067;28;20115;-72
2021/04/13 02:26:51;;;;;;;4.05;1.23;;;4.70;71.00;;;;;;5099814;28;20041;-71
2021/04/13 02:29:18;;;;;;;4.20;1.17;;;4.70;71.10;;;;;;5074037;28;20035;-72
2021/04/13 02:31:50;;;;;;;4.93;1.33;;;4.70;71.00;;;;;;5074974;28;20047;-72
2021/04/13 02:34:29;;;;;;;3.50;1.20;;;4.60;70.90;;;;;;5108231;27;20075;-71
2021/04/13 02:36:57;;;;;;;4.32;1.38;;;4.70;71.10;;;;;;5109955;27;20109;-72
2021/04/13 02:39:27;;;;;;;4.65;1.40;;;4.70;71.20;;;;;;5109245;28;20042;-72
2021/04/13 02:42:04;;;;;;;6.35;1.50;;;4.70;71.30;;;;;;5075793;28;20131;-72
2021/04/13 02:44:29;;;;;;;7.13;1.52;;;4.70;71.40;;;;;;5092240;28;20161;-72
2021/04/13 02:46:56;;;;;;;5.97;1.00;;;4.70;71.50;;;;;;5092721;28;20065;-70
2021/04/13 02:49:23;;;;;;;7.65;1.13;;;4.80;71.60;;;;;;5109449;27;20036;-72
2021/04/13 02:52:03;;;;;;;8.52;1.50;;;4.70;71.40;;;;;;5109150;28;20052;-71
2021/04/13 02:54:31;;;;;;;5.03;1.33;;;4.70;71.90;;;;;;5091563;28;20063;-73
2021/04/13 02:57:00;;;;;;;3.35;1.20;;;4.70;71.50;;;;;;5109277;27;20101;-71
2021/04/13 02:59:27;;;;;;;5.82;1.50;;;4.70;71.80;;;;;;5091502;28;20507;-72
2021/04/13 03:02:13;;;;;;;6.32;1.35;;;4.70;72.00;;;;;;5075490;28;20111;-72
2021/04/13 03:04:46;;;;;;;4.47;1.02;;;4.80;72.10;;;;;;5110661;27;20048;-72
2021/04/13 03:07:18;;;;;;;3.30;0.93;;;4.70;71.90;;;;;;5074354;28;20449;-71
2021/04/13 03:09:44;;;;;;;6.32;1.75;;;4.80;72.10;;;;;;5073730;28;20040;-71
2021/04/13 03:12:11;;;;;;;6.07;1.45;;;4.80;72.20;;;;;;5081708;28;20051;-72
2021/04/13 03:14:46;;;;;;;7.78;1.55;;;4.80;72.20;;;;;;5074164;28;20044;-72
2021/04/13 03:17:14;;;;;;;7.07;1.23;;;4.80;72.30;;;;;;5109853;27;20062;-71
2021/04/13 03:19:40;;;;;;;6.60;2.30;;;4.70;72.40;;;;;;5090179;28;20149;-71
2021/04/13 03:22:06;;;;;;;7.97;1.50;;;4.70;72.30;;;;;;5091441;28;20035;-72
2021/04/13 03:24:35;;;;;;;5.25;1.05;;;4.70;72.30;;;;;;5089973;28;20047;-72
2021/04/13 03:27:02;;;;;;;4.05;1.00;;;4.70;72.50;;;;;;5074710;28;20040;-72
2021/04/13 03:29:41;;;;;;;6.15;1.40;;;4.70;72.50;;;;;;5073600;28;20400;-72
2021/04/13 03:32:07;;;;;;;4.40;1.05;;;4.70;72.50;;;;;;5099178;28;20036;-72
2021/04/13 03:34:32;;;;;;;5.28;1.20;;;4.70;72.40;;;;;;5096769;28;20511;-73
2021/04/13 03:36:58;;;;;;;5.68;1.20;;;4.70;72.60;;;;;;5074036;28;20047;-72
2021/04/13 03:39:25;;;;;;;4.75;1.33;;;4.70;72.60;;;;;;5074615;28;20434;-72
2021/04/13 03:41:51;;;;;;;7.40;1.48;;;4.70;72.60;;;;;;5073906;28;20052;-72
2021/04/13 03:44:17;;;;;;;4.13;1.30;;;4.70;72.60;;;;;;5091340;28;20042;-71
2021/04/13 03:46:43;;;;;;;4.05;1.45;;;4.60;72.70;;;;;;5090614;28;20072;-70
2021/04/13 03:49:22;;;;;;;7.78;1.73;;;4.60;72.60;;;;;;5090988;28;20078;-72
2021/04/13 03:51:51;;;;;;;4.75;1.10;;;4.60;72.70;;;;;;5091102;28;20124;-72
2021/04/13 03:54:23;;;;;;;5.68;1.75;;;4.60;72.60;;;;;;5108468;28;20051;-72
2021/04/13 03:56:49;;;;;;;5.30;1.30;;;4.60;72.80;;;;;;5108724;28;20040;-72
2021/04/13 03:59:20;;;;;;;6.00;1.60;;;4.60;72.90;;;;;;5091194;28;20047;-71
2021/04/13 04:01:47;;;;;;;8.73;1.58;;;4.60;72.70;;;;;;5106920;28;20040;-73
2021/04/13 04:04:28;;;;;;;5.45;1.60;;;4.60;72.90;;;;;;5089955;28;20044;-73
2021/04/13 04:06:58;;;;;;;6.25;1.27;;;4.60;73.00;;;;;;5089304;28;20048;-72
2021/04/13 04:09:30;;;;;;;4.90;1.05;;;4.60;72.90;;;;;;5089367;28;20086;-73
2021/04/13 04:12:01;;;;;;;8.80;1.63;;;4.60;72.90;;;;;;5089480;28;20063;-73
2021/04/13 04:14:28;;;;;;;5.45;1.27;;;4.50;72.90;;;;;;5090156;28;20048;-72
2021/04/13 04:17:08;;;;;;;4.50;1.40;;;4.50;72.90;;;;;;5088765;28;20052;-72
2021/04/13 04:19:33;;;;;;;8.45;1.33;;;4.50;73.00;;;;;;5089405;28;20436;-72
2021/04/13 04:22:14;;;;;;;5.93;1.77;;;4.50;73.10;;;;;;5089126;28;20059;-71
2021/04/13 04:24:41;;;;;;;8.18;1.73;;;4.50;73.00;;;;;;5088994;28;20068;-72
2021/04/13 04:27:13;;;;;;;8.30;1.73;;;4.50;73.10;;;;;;5109357;28;20052;-70
2021/04/13 04:29:41;;;;;;;4.77;1.47;;;4.50;73.00;;;;;;5094147;28;20036;-72
2021/04/13 04:32:18;;;;;;;6.82;1.77;;;4.50;73.10;;;;;;5093692;28;20281;-71
2021/04/13 04:34:44;;;;;;;6.63;2.08;;;4.40;73.10;;;;;;5075686;28;20048;-72
2021/04/13 04:37:27;;;;;;;6.93;1.55;;;4.50;73.00;;;;;;5086370;28;20066;-71
2021/04/13 04:40:15;;;;;;;7.28;1.50;;;4.40;73.10;;;;;;5105412;28;20044;-71
2021/04/13 04:42:51;;;;;;;5.60;1.83;;;4.40;73.40;;;;;;5092359;28;20171;-72
2021/04/13 04:45:35;;;;;;;9.18;1.63;;;4.40;73.10;;;;;;5076517;28;20044;-72
2021/04/13 04:48:21;;;;;;;6.80;1.45;;;4.40;73.40;;;;;;5093894;28;20046;-71
2021/04/13 04:50:49;;;;;;;8.38;1.67;;;4.40;73.50;;;;;;5092581;28;20040;-72
2021/04/13 04:53:16;;;;;;;7.07;2.28;;;4.40;73.40;;;;;;5093159;28;20040;-72
2021/04/13 04:55:42;;;;;;;8.25;1.52;;;4.40;73.20;;;;;;5092369;28;20066;-73
2021/04/13 04:58:08;;;;;;;10.88;1.95;;;4.40;73.30;;;;;;5094347;28;20040;-71
2021/04/13 05:00:34;;;;;;;7.40;1.40;;;4.40;73.20;;;;;;5076143;28;20345;-72
2021/04/13 05:02:59;;;;;;;7.95;1.77;;;4.40;73.20;;;;;;5093515;28;20209;-72
2021/04/13 05:05:25;;;;;;;4.93;1.60;;;4.40;73.30;;;;;;5092799;28;20043;-72
2021/04/13 05:07:51;;;;;;;9.57;1.60;;;4.40;73.40;;;;;;5091311;28;20044;-73
2021/04/13 05:10:17;;;;;;;9.32;2.40;;;4.40;73.50;;;;;;5091789;28;20036;-72
2021/04/13 05:12:42;;;;;;;8.77;1.60;;;4.40;73.40;;;;;;5074711;28;20040;-73
2021/04/13 05:15:09;;;;;;;9.50;1.58;;;4.40;73.30;;;;;;5074856;28;20479;-73
2021/04/13 05:17:35;;;;;;;6.60;2.00;;;4.40;73.50;;;;;;5091096;28;20400;-72
2021/04/13 05:20:01;;;;;;;8.52;2.40;;;4.40;73.60;;;;;;5088455;28;20040;-73
2021/04/13 05:22:32;;;;;;;6.65;1.85;;;4.40;73.40;;;;;;5086376;28;20047;-72
2021/04/13 05:24:58;;;;;;;5.72;1.77;;;4.40;73.60;;;;;;5088059;28;20040;-72
2021/04/13 05:27:24;;;;;;;8.82;1.80;;;4.40;73.60;;;;;;5090897;28;20116;-72
2021/04/13 05:29:50;;;;;;;5.97;1.98;;;4.40;73.50;;;;;;5091768;28;20036;-71
2021/04/13 05:32:15;;;;;;;7.07;1.95;;;4.40;73.50;;;;;;5092501;28;20036;-71
2021/04/13 05:34:41;;;;;;;9.88;2.17;;;4.40;73.60;;;;;;5097947;28;20047;-71
2021/04/13 05:37:08;;;;;;;9.48;1.92;;;4.40;73.50;;;;;;5091741;28;20051;-71
2021/04/13 05:39:33;;;;;;;8.10;2.28;;;4.40;73.60;;;;;;5075505;28;20056;-72
2021/04/13 05:41:59;;;;;;;9.38;2.72;;;4.50;73.70;;;;;;5074853;28;20044;-72
2021/04/13 05:44:25;;;;;;;10.02;1.60;;;4.40;73.60;;;;;;5092494;28;20044;-71
2021/04/13 05:46:52;;;;;;;8.55;1.98;;;4.50;73.40;;;;;;5074466;28;20476;-72
2021/04/13 05:49:18;;;;;;;6.60;1.80;;;4.40;73.50;;;;;;5093378;28;20119;-72
2021/04/13 05:51:44;;;;;;;8.00;2.20;;;4.40;73.60;;;;;;5092108;28;20101;-71
2021/04/13 05:54:09;;;;;;;8.27;1.90;;;4.50;73.90;;;;;;5091878;28;20032;-72
2021/04/13 05:56:37;;;;;;;9.05;1.90;;;4.50;74.00;;;;;;5057674;28;20131;-71
2021/04/13 05:59:04;;;;;;;8.20;2.60;;;4.50;74.10;;;;;;5055161;28;20044;-71
2021/04/13 06:01:30;;;;;;;8.13;1.90;;;4.50;74.20;;;;;;5091624;28;20126;-75
2021/04/13 06:03:56;;;;;;;7.38;1.88;;;4.50;74.20;;;;;;5071920;28;20524;-74
2021/04/13 06:06:22;;;;;;;11.68;2.22;;;4.50;74.00;;;;;;5074912;28;20174;-74
2021/04/13 06:08:49;;;;;;;9.40;2.92;;;4.60;74.20;;;;;;5091047;28;20063;-74
2021/04/13 06:11:19;;;;;;;10.82;2.30;;;4.60;74.30;;;;;;5091395;28;20047;-75
2021/04/13 06:13:46;;;;;;;13.23;3.85;;;4.60;74.30;;;;;;5072865;28;20084;-73
2021/04/13 06:16:21;;;;;;;8.10;2.10;;;4.60;74.40;;;;;;5074468;28;20055;-75
2021/04/13 06:18:47;;;;;;;12.10;1.98;;;4.60;74.30;;;;;;5083841;28;20121;-73
2021/04/13 06:21:13;;;;;;;8.18;1.88;;;4.70;74.40;;;;;;5099795;28;20109;-72
2021/04/13 06:23:39;;;;;;;9.93;2.00;;;4.70;74.30;;;;;;5075349;28;20403;-74
2021/04/13 06:26:05;;;;;;;8.15;1.98;;;4.80;74.30;;;;;;5090932;28;20071;-73
2021/04/13 06:28:31;;;;;;;6.18;1.80;;;4.70;74.20;;;;;;5082742;28;20061;-73
2021/04/13 06:30:56;;;;;;;9.38;2.22;;;4.80;74.30;;;;;;5074507;28;20066;-73
2021/04/13 06:33:22;;;;;;;7.70;2.05;;;4.80;74.30;;;;;;5074994;28;20465;-73
2021/04/13 06:35:48;;;;;;;9.65;2.13;;;4.80;74.10;;;;;;5088627;28;20047;-71
2021/04/13 06:38:19;;;;;;;7.32;1.73;;;4.80;74.10;;;;;;5097113;28;20535;-73
2021/04/13 06:41:03;;;;;;;10.40;2.30;;;4.90;74.20;;;;;;5083343;28;20052;-73
2021/04/13 06:44:23;;;;;;;5.63;2.35;;;4.80;74.30;;;;;;5119594;27;20392;-75
2021/04/13 06:47:01;;;;;;;10.15;2.10;;;4.90;74.40;;;;;;5000077;28;20046;-68
2021/04/13 06:49:53;;;;;;;9.35;2.70;;;4.90;74.00;;;;;;5077196;28;20052;-74
2021/04/13 06:52:37;;;;;;;11.15;2.80;;;5.20;75.80;;;;;;5070708;28;20093;-72
2021/04/13 06:55:14;;;;;;;7.10;2.20;;;5.40;75.80;;;;;;5072122;28;20040;-72
2021/04/13 06:58:04;;;;;;;8.93;2.38;;;5.40;74.60;;;;;;5090373;28;20055;-72
2021/04/13 07:01:01;;;;;;;8.30;2.33;;;5.40;74.20;;;;;;5092011;28;20066;-72
2021/04/13 07:03:45;;;;;;;9.18;2.78;;;5.40;73.80;;;;;;5091652;28;20047;-72
2021/04/13 07:06:28;;;;;;;6.28;1.30;;;5.40;73.70;;;;;;5084303;28;20645;-73
2021/04/13 07:09:13;;;;;;;12.32;2.92;;;5.70;76.40;;;;;;5086686;28;20051;-73
2021/04/13 07:12:06;;;;;;;10.38;2.63;;;5.90;76.00;;;;;;5085646;28;20192;-73
2021/04/13 07:14:39;;;;;;;9.85;2.50;;;6.00;74.10;;;;;;5082006;28;20083;-73
2021/04/13 07:17:27;;;;;;;8.10;2.65;;;5.90;73.70;;;;;;5077420;28;20064;-73
2021/04/13 07:19:56;;;;;;;8.95;2.30;;;5.90;73.70;;;;;;5049658;28;20058;-72
2021/04/13 07:22:36;;;;;;;7.13;2.33;;;5.80;73.50;;;;;;5089803;28;20040;-73
2021/04/13 07:25:30;;;;;;;7.88;1.80;;;5.80;73.60;;;;;;5057984;28;20054;-74
2021/04/13 07:28:10;;;;;;;4.85;2.05;;;5.80;73.90;;;;;;5081419;28;20445;-73
2021/04/13 07:30:45;;;;;;;6.97;2.10;;;5.80;73.60;;;;;;5071763;28;20609;-72
2021/04/13 07:33:18;;;;;;;7.68;2.00;;;5.80;73.60;;;;;;5072380;28;20114;-72
2021/04/13 07:35:44;;;;;;;7.95;2.55;;;5.80;73.70;;;;;;5071128;28;20044;-73
2021/04/13 07:38:43;;;;;;;8.20;1.95;;;5.80;73.40;;;;;;5070726;28;20055;-72
2021/04/13 07:41:36;;;;;;;8.38;2.40;;;5.90;73.70;;;;;;5095089;28;20058;-72
2021/04/13 07:44:01;;;;;;;;;;;5.90;73.70;;;;;;5083785;28;20041;-73
2021/04/13 07:46:45;;;;;;;6.70;1.65;;;5.90;73.80;;;;;;5088149;28;19931;-73
2021/04/13 07:49:39;;;;;;;8.02;1.85;;;5.90;73.40;;;;;;5086668;28;20044;-72
2021/04/13 07:52:46;;;;;;;6.13;1.42;;;6.00;73.30;;;;;;5084609;28;20060;-74
2021/04/13 07:55:35;;;;;;;5.18;1.30;;;6.00;73.00;;;;;;5070729;28;20055;-73
2021/04/13 07:58:04;;;;;;;7.80;2.33;;;6.00;72.70;;;;;;5070914;28;20060;-75
2021/04/13 08:00:32;;;;;;;7.00;1.38;;;6.00;72.30;;;;;;5087609;28;20135;-73
2021/04/13 08:03:22;;;;;;;6.68;1.25;;;6.10;72.10;;;;;;5069739;28;20495;-74
2021/04/13 08:05:49;;;;;;;5.70;1.30;;;6.10;72.10;;;;;;5089300;28;20051;-72
2021/04/13 08:08:25;;;;;;;5.88;1.60;;;6.10;72.70;;;;;;5104582;27;20055;-74
2021/04/13 08:10:51;;;;;;;4.88;1.00;;;6.20;72.20;;;;;;5088708;28;20047;-73
2021/04/13 08:13:34;;;;;;;6.53;1.40;;;6.20;72.10;;;;;;5085929;28;20044;-74
2021/04/13 08:16:00;;;;;;;6.43;1.20;;;6.30;72.10;;;;;;5064150;28;20127;-75
2021/04/13 08:18:31;;;;;;;4.00;1.25;;;6.40;71.80;;;;;;5066665;28;20471;-73
2021/04/13 08:21:17;;;;;;;5.25;0.95;;;6.40;71.40;;;;;;5072018;28;20048;-73
2021/04/13 08:23:44;;;;;;;6.50;1.33;;;6.50;70.60;;;;;;5086639;28;20548;-73
2021/04/13 08:26:25;;;;;;;3.88;1.10;;;6.50;70.10;;;;;;5070198;28;20048;-73
2021/04/13 08:28:54;;;;;;;6.88;1.38;;;6.60;69.00;;;;;;5085902;28;20045;-73
2021/04/13 08:34:52;;;;;;;9.65;1.23;;;6.60;68.50;;;;;;5088227;28;20429;-72
2021/04/13 08:37:21;;;;;;;4.85;1.30;;;6.70;68.30;;;;;;5086227;28;20548;-72
2021/04/13 08:40:34;;;;;;;8.90;1.83;;;6.70;68.30;;;;;;5088912;28;20109;-72
2021/04/13 08:43:20;;;;;;;4.90;1.10;;;6.80;68.20;;;;;;5012911;28;20041;-73
2021/04/13 08:46:05;;;;;;;3.47;1.20;;;6.90;67.30;;;;;;4984217;28;20045;-72
2021/04/13 08:49:02;;;;;;;6.40;1.20;;;6.90;67.10;;;;;;5060979;28;20057;-72
2021/04/13 08:51:37;;;;;;;6.35;1.30;;;7.00;67.30;;;;;;5061020;28;20063;-73
2021/04/13 08:54:21;;;;;;;6.78;1.35;;;7.00;66.40;;;;;;5118808;27;20051;-76
2021/04/13 08:57:15;;;;;;;4.57;0.70;;;7.00;65.50;;;;;;5076818;28;20055;-71
2021/04/13 08:59:44;;;;;;;5.50;0.70;;;7.30;67.20;;;;;;5091944;28;20078;-73
2021/04/13 09:02:34;;;;;;;3.60;0.65;;;7.40;65.90;;;;;;5075375;28;20056;-73
2021/04/13 09:05:03;;;;;;;6.40;1.33;;;7.50;64.30;;;;;;5112453;27;20069;-72
2021/04/13 09:07:31;;;;;;;3.70;0.70;;;7.50;64.40;;;;;;5090867;28;20043;-72
2021/04/13 09:10:26;;;;;;;7.28;1.38;;;7.50;64.10;;;;;;5074464;28;20036;-73
2021/04/13 09:13:10;;;;;;;6.65;1.33;;;7.60;64.20;;;;;;5078371;28;20055;-72
2021/04/13 09:15:46;;;;;;;5.28;1.17;;;7.70;63.90;;;;;;5090744;28;20055;-72
2021/04/13 09:18:18;;;;;;;3.17;0.85;;;7.70;63.70;;;;;;5091455;28;20043;-73
2021/04/13 09:20:48;;;;;;;4.68;1.00;;;7.80;64.10;;;;;;5074466;28;20048;-72
2021/04/13 09:23:37;;;;;;;4.35;0.80;;;7.80;64.10;;;;;;5091165;28;20127;-73
2021/04/13 09:26:25;;;;;;;3.60;0.55;;;7.90;63.90;;;;;;5087031;28;20047;-68
2021/04/13 09:28:53;;;;;;;6.07;1.35;;;7.90;65.10;;;;;;5087246;28;20044;-70
2021/04/13 09:31:21;;;;;;;3.65;0.57;;;8.40;66.50;;;;;;5072851;28;20048;-69
2021/04/13 09:33:47;;;;;;;6.72;0.90;;;8.70;64.70;;;;;;5091438;28;20048;-71
2021/04/13 09:36:51;;;;;;;8.43;1.00;;;9.00;63.70;;;;;;5072961;28;20094;-72
2021/04/13 09:39:49;;;;;;;2.45;0.80;;;9.20;62.20;;;;;;5089771;28;20123;-70
2021/04/13 09:42:18;;;;;;;3.30;0.88;;;9.40;60.80;;;;;;5089395;28;20062;-70
2021/04/13 09:45:15;;;;;;;3.58;0.90;;;9.50;61.00;;;;;;5092800;28;20039;-71
2021/04/13 09:47:53;;;;;;;3.63;0.73;;;9.70;59.50;;;;;;5079556;28;20476;-73
2021/04/13 09:50:42;;;;;;;2.05;0.63;;;9.80;60.10;;;;;;5091414;28;20126;-73
2021/04/13 09:53:44;;;;;;;5.65;0.95;;;9.80;59.50;;;;;;5089184;28;20125;-72
2021/04/13 09:56:46;;;;;;;2.85;0.90;;;9.90;59.80;;;;;;5074054;28;20058;-73
2021/04/13 09:59:59;;;;;;;5.07;0.97;;;10.20;60.00;;;;;;5105644;27;20167;-74
2021/04/13 10:02:50;;;;;;;7.55;1.00;;;10.30;60.20;;;;;;5032084;28;20377;-73
2021/04/13 10:05:34;;;;;;;3.58;1.30;;;10.40;59.90;;;;;;5088576;28;20097;-73
2021/04/13 10:08:10;;;;;;;7.07;1.40;;;10.40;59.30;;;;;;5089614;28;20044;-73
2021/04/13 10:10:37;;;;;;;3.22;1.00;;;10.30;60.00;;;;;;5078947;28;20156;-72
2021/04/13 10:13:24;;;;;;;7.28;1.92;;;10.20;59.50;;;;;;5073640;28;20044;-67
2021/04/13 10:16:06;;;;;;;4.75;1.00;;;10.10;58.90;;;;;;5085948;28;20052;-74
2021/04/13 10:18:50;;;;;;;9.40;1.20;;;10.00;58.50;;;;;;5094399;28;20040;-73
2021/04/13 10:21:31;;;;;;;4.35;1.13;;;10.00;59.50;;;;;;5089931;28;20048;-76
2021/04/13 10:24:03;;;;;;;4.13;1.15;;;10.00;59.30;;;;;;5093788;28;20036;-70
2021/04/13 10:26:34;;;;;;;2.50;0.85;;;9.90;59.20;;;;;;5075348;28;20048;-72
2021/04/13 10:29:09;;;;;;;5.38;0.82;;;9.90;59.40;;;;;;5098677;28;20119;-72
2021/04/13 10:31:53;;;;;;;3.60;0.80;;;9.90;58.80;;;;;;5093594;28;20052;-75
2021/04/13 10:34:40;;;;;;;9.90;1.17;;;9.90;58.30;;;;;;5108263;28;20042;-70
2021/04/13 10:37:10;;;;;;;5.75;1.33;;;9.90;57.60;;;;;;5092955;28;20065;-72
2021/04/13 10:39:41;;;;;;;4.50;1.40;;;10.00;58.10;;;;;;5093167;28;20048;-71
2021/04/13 10:42:13;;;;;;;5.63;0.93;;;10.00;58.20;;;;;;5077089;28;20054;-73
2021/04/13 10:44:53;;;;;;;4.13;1.25;;;10.00;58.80;;;;;;5095443;28;20055;-72
2021/04/13 10:47:50;;;;;;;3.42;0.80;;;10.20;59.30;;;;;;5129584;27;20380;-74
2021/04/13 10:50:53;;;;;;;4.15;1.02;;;10.40;60.70;;;;;;5071642;28;20059;-74
2021/04/13 10:53:49;;;;;;;3.45;1.08;;;10.60;59.80;;;;;;5096401;28;20067;-75
2021/04/13 10:56:54;;;;;;;2.17;0.75;;;10.80;59.20;;;;;;5096451;28;20123;-74
2021/04/13 10:59:44;;;;;;;4.78;1.00;;;11.10;59.80;;;;;;5088289;28;20036;-75
2021/04/13 11:02:40;;;;;;;5.25;1.20;;;11.40;59.50;;;;;;5086936;28;20120;-71
2021/04/13 11:05:21;;;;;;;2.63;0.90;;;11.80;58.60;;;;;;5082490;28;20037;-73
2021/04/13 11:08:21;;;;;;;4.90;1.33;;;12.10;58.10;;;;;;5093073;28;20043;-71
2021/04/13 11:11:09;;;;;;;5.03;1.40;;;12.20;57.00;;;;;;5094321;28;20066;-71
2021/04/13 11:13:41;;;;;;;2.47;0.98;;;12.20;55.20;;;;;;5076036;28;20059;-72
2021/04/13 11:16:45;;;;;;;4.40;0.82;;;12.20;54.90;;;;;;5095300;28;20060;-72
2021/04/13 11:19:49;;;;;;;4.47;1.25;;;12.00;53.60;;;;;;5099686;28;20047;-70
2021/04/13 11:22:43;;;;;;;2.28;0.63;;;12.00;54.10;;;;;;5097300;28;20063;-78
2021/04/13 11:25:15;;;;;;;2.22;0.75;;;12.40;58.00;;;;;;5092558;28;20036;-75
2021/04/13 11:28:09;;;;;;;4.35;1.23;;;13.20;56.10;;;;;;5111192;28;20091;-73
2021/04/13 11:30:54;;;;;;;6.20;1.30;;;13.60;54.10;;;;;;5083994;28;20040;-75
2021/04/13 11:33:38;;;;;;;3.55;1.23;;;13.50;52.80;;;;;;5082227;28;20036;-73
2021/04/13 11:36:34;;;;;;;2.33;0.80;;;13.30;52.00;;;;;;5096532;28;20124;-73
2021/04/13 11:39:05;;;;;;;3.25;1.13;;;13.00;51.40;;;;;;5096502;28;20169;-73
2021/04/13 11:41:49;;;;;;;5.20;1.00;;;12.80;52.50;;;;;;5078021;28;20406;-73
2021/04/13 11:44:48;;;;;;;3.33;0.70;;;12.60;52.20;;;;;;5097363;28;20061;-74
2021/04/13 11:47:32;;;;;;;5.35;1.10;;;12.40;52.30;;;;;;5085045;28;20492;-73
2021/04/13 11:50:07;;;;;;;5.35;1.35;;;12.30;52.50;;;;;;5079060;28;20040;-73
2021/04/13 11:53:01;;;;;;;4.97;1.23;;;12.10;53.00;;;;;;5096779;28;20039;-74
2021/04/13 11:55:27;;;;;;;3.42;0.95;;;12.00;52.10;;;;;;5079390;28;20063;-75
2021/04/13 11:58:07;;;;;;;7.97;1.30;;;11.80;53.10;;;;;;5088220;28;20391;-72
2021/04/13 12:00:33;;;;;;;5.85;1.23;;;11.80;53.10;;;;;;5077087;28;20062;-74
2021/04/13 12:03:22;;;;;;;3.58;1.10;;;11.80;53.50;;;;;;5078053;28;20044;-74
2021/04/13 12:05:49;;;;;;;5.80;1.10;;;12.00;53.40;;;;;;5096878;28;20119;-74
2021/04/13 12:08:42;;;;;;;4.18;1.02;;;12.30;53.10;;;;;;5130390;27;20054;-74
2021/04/13 12:11:11;;;;;;;3.60;1.25;;;12.70;52.50;;;;;;5083351;28;20063;-74
2021/04/13 12:13:47;;;;;;;4.78;1.27;;;13.00;52.40;;;;;;5079988;28;20527;-73
2021/04/13 12:16:42;;;;;;;5.95;1.38;;;13.40;51.60;;;;;;5080020;28;20067;-74
2021/04/13 12:19:17;;;;;;;5.55;0.70;;;13.80;50.90;;;;;;5083663;28;20074;-73
2021/04/13 12:22:07;;;;;;;3.92;1.35;;;14.00;50.20;;;;;;5060368;28;20885;-74
2021/04/13 12:24:39;;;;;;;3.97;1.05;;;14.10;49.50;;;;;;5072619;28;20063;-72
2021/04/13 12:27:26;;;;;;;3.20;1.13;;;14.10;48.90;;;;;;5097558;28;20071;-74
2021/04/13 12:30:23;;;;;;;3.95;0.63;;;14.00;47.50;;;;;;5097373;28;20052;-73
2021/04/13 12:32:50;;;;;;;4.35;0.75;;;13.90;46.20;;;;;;5083402;28;20044;-72
2021/04/13 12:35:48;;;;;;;4.07;1.00;;;13.70;47.90;;;;;;5098008;28;20070;-74
2021/04/13 12:38:37;;;;;;;3.25;1.00;;;13.80;46.10;;;;;;5086231;28;20059;-73
2021/04/13 12:41:22;;;;;;;4.57;1.05;;;13.80;46.30;;;;;;5076245;28;20101;-74
2021/04/13 12:43:48;;;;;;;4.82;1.08;;;13.70;45.30;;;;;;5077187;28;20058;-73
2021/04/13 12:46:30;;;;;;;5.55;0.98;;;13.50;46.50;;;;;;5096729;28;20044;-74
2021/04/13 12:48:57;;;;;;;4.32;1.05;;;13.30;45.80;;;;;;5096636;28;20040;-74
2021/04/13 12:51:27;;;;;;;2.20;0.63;;;13.10;46.20;;;;;;5079108;28;20098;-73
2021/04/13 12:54:27;;;;;;;2.95;0.73;;;13.00;46.30;;;;;;5060226;28;20079;-73
2021/04/13 12:56:56;;;;;;;3.55;0.73;;;13.00;46.60;;;;;;5086701;28;20040;-73
2021/04/13 12:59:26;;;;;;;3.67;0.80;;;13.00;46.60;;;;;;5079691;28;20066;-73
2021/04/13 13:01:52;;;;;;;4.22;0.98;;;12.90;46.30;;;;;;5062931;28;20044;-74
2021/04/13 13:04:20;;;;;;;5.20;0.90;;;13.00;46.80;;;;;;5097431;28;20065;-74
2021/04/13 13:06:54;;;;;;;4.25;1.00;;;13.10;46.60;;;;;;5058788;28;20068;-74
2021/04/13 13:09:27;;;;;;;3.85;0.90;;;13.40;46.10;;;;;;5073108;28;20050;-72
2021/04/13 13:11:57;;;;;;;4.13;0.80;;;13.60;45.30;;;;;;5082395;28;20699;-74
2021/04/13 13:14:23;;;;;;;4.30;0.70;;;13.70;45.40;;;;;;5079564;28;20396;-75
2021/04/13 13:16:55;;;;;;;3.20;0.70;;;13.50;44.50;;;;;;5076111;28;20055;-73
2021/04/13 13:19:27;;;;;;;4.28;0.90;;;13.40;44.40;;;;;;5079993;28;20036;-73
2021/04/13 13:21:54;;;;;;;3.17;0.73;;;13.10;44.20;;;;;;5076321;28;20052;-74
2021/04/13 13:24:25;;;;;;;2.78;0.98;;;13.00;44.20;;;;;;5077567;28;20119;-73
2021/04/13 13:26:51;;;;;;;2.30;0.82;;;12.90;44.50;;;;;;5062600;28;20134;-73
2021/04/13 13:29:17;;;;;;;2.40;0.70;;;12.70;44.30;;;;;;5093332;28;20036;-74
2021/04/13 13:31:42;;;;;;;6.10;1.20;;;12.60;45.10;;;;;;5091536;28;20036;-73
2021/04/13 13:34:19;;;;;;;3.97;0.88;;;12.50;44.80;;;;;;5106740;28;20052;-73
2021/04/13 13:36:48;;;;;;;4.03;0.93;;;12.40;44.70;;;;;;5095532;28;20051;-74
2021/04/13 13:39:34;;;;;;;3.72;0.77;;;12.40;44.80;;;;;;5080182;28;20057;-73
2021/04/13 13:42:01;;;;;;;3.63;1.10;;;12.40;44.90;;;;;;5095146;28;20059;-73
2021/04/13 13:44:38;;;;;;;3.67;1.10;;;12.60;45.60;;;;;;5095074;28;20051;-72
2021/04/13 13:47:06;;;;;;;5.13;1.02;;;12.70;45.60;;;;;;5061707;28;20161;-73